sensor_id;sensor_type;location;lat;lon;timestamp;P1;durP1;ratioP1;P2;durP2;ratioP2
8411;SDS011;4243;49.296;11.348;2023-02-28T00:01:31;111.57;;;3.35;;
8411;SDS011;4243;49.296;11.348;2023-02-28T00:04:00;111.18;;;3.33;;
8411;SDS011;4243;49.296;11.348;2023-02-28T00:06:27;111.22;;;3.33;;
8411;SDS011;4243;49.296;11.348;2023-02-28T00:08:55;111.88;;;3.38;;
8411;SDS011;4243;49.296;11.348;2023-02-28T00:11:25;110.90;;;3.33;;
8411;SDS011;4243;49.296;11.348;2023-02-28T00:13:53;108.97;;;3.33;;
8411;SDS011;4243;49.296;11.348;2023-02-28T00:16:22;111.28;;;3.40;;
8411;SDS011;4243;49.296;11.348;2023-02-28T00:18:49;111.90;;;3.35;;
8411;SDS011;4243;49.296;11.348;2023-02-28T00:21:17;111.68;;;3.33;;
8411;SDS011;4243;49.296;11.348;2023-02-28T00:23:45;112.00;;;3.40;;
8411;SDS011;4243;49.296;11.348;2023-02-28T00:26:13;108.07;;;3.30;;
8411;SDS011;4243;49.296;11.348;2023-02-28T00:28:44;111.15;;;3.35;;
8411;SDS011;4243;49.296;11.348;2023-02-28T00:31:11;110.20;;;3.40;;
8411;SDS011;4243;49.296;11.348;2023-02-28T00:33:39;111.38;;;3.40;;
8411;SDS011;4243;49.296;11.348;2023-02-28T00:36:07;110.60;;;3.43;;
8411;SDS011;4243;49.296;11.348;2023-02-28T00:38:37;111.90;;;3.35;;
8411;SDS011;4243;49.296;11.348;2023-02-28T00:41:06;110.97;;;3.38;;
8411;SDS011;4243;49.296;11.348;2023-02-28T00:43:35;111.05;;;3.33;;
8411;SDS011;4243;49.296;11.348;2023-02-28T00:46:05;111.47;;;3.45;;
8411;SDS011;4243;49.296;11.348;2023-02-28T00:48:33;111.65;;;3.40;;
8411;SDS011;4243;49.296;11.348;2023-02-28T00:51:02;111.47;;;3.40;;
8411;SDS011;4243;49.296;11.348;2023-02-28T00:53:30;110.03;;;3.40;;
8411;SDS011;4243;49.296;11.348;2023-02-28T00:55:58;111.55;;;3.35;;
8411;SDS011;4243;49.296;11.348;2023-02-28T00:58:26;110.90;;;3.38;;
8411;SDS011;4243;49.296;11.348;2023-02-28T01:00:54;110.88;;;3.40;;
8411;SDS011;4243;49.296;11.348;2023-02-28T01:03:21;110.53;;;3.33;;
8411;SDS011;4243;49.296;11.348;2023-02-28T01:05:49;111.07;;;3.38;;
8411;SDS011;4243;49.296;11.348;2023-02-28T01:08:19;111.75;;;3.33;;
8411;SDS011;4243;49.296;11.348;2023-02-28T01:10:47;111.32;;;3.35;;
8411;SDS011;4243;49.296;11.348;2023-02-28T01:13:14;110.82;;;3.38;;
8411;SDS011;4243;49.296;11.348;2023-02-28T01:15:48;111.13;;;3.38;;
8411;SDS011;4243;49.296;11.348;2023-02-28T01:18:20;111.53;;;3.33;;
8411;SDS011;4243;49.296;11.348;2023-02-28T01:20:48;111.38;;;3.40;;
8411;SDS011;4243;49.296;11.348;2023-02-28T01:23:18;111.47;;;3.40;;
8411;SDS011;4243;49.296;11.348;2023-02-28T01:25:51;111.80;;;3.40;;
8411;SDS011;4243;49.296;11.348;2023-02-28T01:28:19;110.93;;;3.40;;
8411;SDS011;4243;49.296;11.348;2023-02-28T01:30:49;111.38;;;3.40;;
8411;SDS011;4243;49.296;11.348;2023-02-28T01:33:17;111.32;;;3.45;;
8411;SDS011;4243;49.296;11.348;2023-02-28T01:35:44;111.63;;;3.45;;
8411;SDS011;4243;49.296;11.348;2023-02-28T01:38:11;111.32;;;3.42;;
8411;SDS011;4243;49.296;11.348;2023-02-28T01:40:48;110.93;;;3.42;;
8411;SDS011;4243;49.296;11.348;2023-02-28T01:43:19;111.18;;;3.42;;
8411;SDS011;4243;49.296;11.348;2023-02-28T01:45:54;111.38;;;3.42;;
8411;SDS011;4243;49.296;11.348;2023-02-28T01:48:25;111.90;;;3.42;;
8411;SDS011;4243;49.296;11.348;2023-02-28T01:50:59;111.28;;;3.40;;
8411;SDS011;4243;49.296;11.348;2023-02-28T01:53:44;111.28;;;3.42;;
8411;SDS011;4243;49.296;11.348;2023-02-28T01:56:19;110.97;;;3.40;;
8411;SDS011;4243;49.296;11.348;2023-02-28T01:58:55;110.82;;;3.40;;
8411;SDS011;4243;49.296;11.348;2023-02-28T02:01:23;110.53;;;3.42;;
8411;SDS011;4243;49.296;11.348;2023-02-28T02:03:55;110.63;;;3.40;;
8411;SDS011;4243;49.296;11.348;2023-02-28T02:06:29;111.57;;;3.47;;
8411;SDS011;4243;49.296;11.348;2023-02-28T02:09:09;110.32;;;3.40;;
8411;SDS011;4243;49.296;11.348;2023-02-28T02:11:37;110.63;;;3.40;;
8411;SDS011;4243;49.296;11.348;2023-02-28T02:23:24;111.28;;;3.40;;
8411;SDS011;4243;49.296;11.348;2023-02-28T02:26:44;110.65;;;3.42;;
8411;SDS011;4243;49.296;11.348;2023-02-28T02:29:51;110.93;;;3.40;;
8411;SDS011;4243;49.296;11.348;2023-02-28T02:33:16;111.30;;;3.40;;
8411;SDS011;4243;49.296;11.348;2023-02-28T02:36:38;111.13;;;3.45;;
8411;SDS011;4243;49.296;11.348;2023-02-28T02:42:41;110.88;;;3.40;;
8411;SDS011;4243;49.296;11.348;2023-02-28T02:45:44;111.18;;;3.40;;
8411;SDS011;4243;49.296;11.348;2023-02-28T02:48:18;110.32;;;3.38;;
8411;SDS011;4243;49.296;11.348;2023-02-28T02:50:53;109.75;;;3.38;;
8411;SDS011;4243;49.296;11.348;2023-02-28T02:53:27;110.53;;;3.42;;
8411;SDS011;4243;49.296;11.348;2023-02-28T02:56:01;111.30;;;3.42;;
8411;SDS011;4243;49.296;11.348;2023-02-28T02:58:33;110.97;;;3.40;;
8411;SDS011;4243;49.296;11.348;2023-02-28T03:01:14;110.78;;;3.45;;
8411;SDS011;4243;49.296;11.348;2023-02-28T03:03:55;111.80;;;3.40;;
8411;SDS011;4243;49.296;11.348;2023-02-28T03:06:37;111.32;;;3.45;;
8411;SDS011;4243;49.296;11.348;2023-02-28T03:09:08;111.07;;;3.40;;
8411;SDS011;4243;49.296;11.348;2023-02-28T03:11:39;109.63;;;3.40;;
8411;SDS011;4243;49.296;11.348;2023-02-28T03:14:17;111.32;;;3.45;;
8411;SDS011;4243;49.296;11.348;2023-02-28T03:23:10;110.97;;;3.42;;
8411;SDS011;4243;49.296;11.348;2023-02-28T03:25:54;111.18;;;3.42;;
8411;SDS011;4243;49.296;11.348;2023-02-28T03:28:41;110.88;;;3.40;;
8411;SDS011;4243;49.296;11.348;2023-02-28T03:31:32;111.18;;;3.45;;
8411;SDS011;4243;49.296;11.348;2023-02-28T03:34:17;110.10;;;3.40;;
8411;SDS011;4243;49.296;11.348;2023-02-28T03:36:57;110.38;;;3.40;;
8411;SDS011;4243;49.296;11.348;2023-02-28T03:39:39;110.93;;;3.40;;
8411;SDS011;4243;49.296;11.348;2023-02-28T03:42:20;111.07;;;3.40;;
8411;SDS011;4243;49.296;11.348;2023-02-28T03:44:55;110.35;;;3.40;;
8411;SDS011;4243;49.296;11.348;2023-02-28T03:50:44;110.88;;;3.42;;
8411;SDS011;4243;49.296;11.348;2023-02-28T03:53:24;110.95;;;3.40;;
8411;SDS011;4243;49.296;11.348;2023-02-28T03:56:20;110.93;;;3.40;;
8411;SDS011;4243;49.296;11.348;2023-02-28T04:01:55;109.72;;;3.40;;
8411;SDS011;4243;49.296;11.348;2023-02-28T04:04:24;111.18;;;3.45;;
8411;SDS011;4243;49.296;11.348;2023-02-28T04:06:52;110.68;;;3.40;;
8411;SDS011;4243;49.296;11.348;2023-02-28T04:09:31;110.78;;;3.38;;
8411;SDS011;4243;49.296;11.348;2023-02-28T04:11:59;110.70;;;3.40;;
8411;SDS011;4243;49.296;11.348;2023-02-28T04:14:26;109.65;;;3.42;;
8411;SDS011;4243;49.296;11.348;2023-02-28T04:16:53;110.57;;;3.40;;
8411;SDS011;4243;49.296;11.348;2023-02-28T04:19:20;110.78;;;3.40;;
8411;SDS011;4243;49.296;11.348;2023-02-28T04:21:49;110.20;;;3.40;;
8411;SDS011;4243;49.296;11.348;2023-02-28T04:24:23;110.97;;;3.40;;
8411;SDS011;4243;49.296;11.348;2023-02-28T04:26:54;111.15;;;3.40;;
8411;SDS011;4243;49.296;11.348;2023-02-28T04:29:24;108.78;;;3.42;;
8411;SDS011;4243;49.296;11.348;2023-02-28T04:31:56;110.72;;;3.38;;
8411;SDS011;4243;49.296;11.348;2023-02-28T04:34:25;110.57;;;3.45;;
8411;SDS011;4243;49.296;11.348;2023-02-28T04:36:55;111.07;;;3.40;;
8411;SDS011;4243;49.296;11.348;2023-02-28T04:39:38;110.65;;;3.38;;
8411;SDS011;4243;49.296;11.348;2023-02-28T04:42:08;109.93;;;3.40;;
8411;SDS011;4243;49.296;11.348;2023-02-28T04:44:35;110.35;;;3.38;;
8411;SDS011;4243;49.296;11.348;2023-02-28T04:47:02;111.07;;;3.42;;
8411;SDS011;4243;49.296;11.348;2023-02-28T04:49:29;110.05;;;3.42;;
8411;SDS011;4243;49.296;11.348;2023-02-28T04:51:57;110.68;;;3.42;;
8411;SDS011;4243;49.296;11.348;2023-02-28T04:54:24;110.43;;;3.42;;
8411;SDS011;4243;49.296;11.348;2023-02-28T04:56:51;110.47;;;3.42;;
8411;SDS011;4243;49.296;11.348;2023-02-28T04:59:18;110.57;;;3.47;;
8411;SDS011;4243;49.296;11.348;2023-02-28T05:01:47;110.72;;;3.45;;
8411;SDS011;4243;49.296;11.348;2023-02-28T05:04:15;110.43;;;3.38;;
8411;SDS011;4243;49.296;11.348;2023-02-28T05:06:43;109.93;;;3.45;;
8411;SDS011;4243;49.296;11.348;2023-02-28T05:09:10;110.68;;;3.42;;
8411;SDS011;4243;49.296;11.348;2023-02-28T05:11:38;110.32;;;3.42;;
8411;SDS011;4243;49.296;11.348;2023-02-28T05:14:06;109.93;;;3.45;;
8411;SDS011;4243;49.296;11.348;2023-02-28T05:16:40;110.68;;;3.50;;
8411;SDS011;4243;49.296;11.348;2023-02-28T05:19:07;110.88;;;3.45;;
8411;SDS011;4243;49.296;11.348;2023-02-28T05:21:35;110.38;;;3.40;;
8411;SDS011;4243;49.296;11.348;2023-02-28T05:24:22;110.38;;;3.45;;
8411;SDS011;4243;49.296;11.348;2023-02-28T05:26:50;109.65;;;3.45;;
8411;SDS011;4243;49.296;11.348;2023-02-28T05:29:20;110.63;;;3.50;;
8411;SDS011;4243;49.296;11.348;2023-02-28T05:31:48;109.82;;;3.50;;
8411;SDS011;4243;49.296;11.348;2023-02-28T05:34:15;110.57;;;3.47;;
8411;SDS011;4243;49.296;11.348;2023-02-28T05:36:42;110.38;;;3.45;;
8411;SDS011;4243;49.296;11.348;2023-02-28T05:39:10;110.78;;;3.45;;
8411;SDS011;4243;49.296;11.348;2023-02-28T05:41:40;110.90;;;3.47;;
8411;SDS011;4243;49.296;11.348;2023-02-28T05:44:09;110.43;;;3.50;;
8411;SDS011;4243;49.296;11.348;2023-02-28T05:46:37;110.63;;;3.45;;
8411;SDS011;4243;49.296;11.348;2023-02-28T05:49:04;110.88;;;3.50;;
8411;SDS011;4243;49.296;11.348;2023-02-28T05:51:31;110.60;;;3.47;;
8411;SDS011;4243;49.296;11.348;2023-02-28T05:54:00;110.53;;;3.47;;
8411;SDS011;4243;49.296;11.348;2023-02-28T05:56:28;110.18;;;3.42;;
8411;SDS011;4243;49.296;11.348;2023-02-28T05:58:55;110.38;;;3.45;;
8411;SDS011;4243;49.296;11.348;2023-02-28T06:04:05;110.57;;;3.50;;
8411;SDS011;4243;49.296;11.348;2023-02-28T06:06:48;110.78;;;3.47;;
8411;SDS011;4243;49.296;11.348;2023-02-28T06:09:16;110.00;;;3.50;;
8411;SDS011;4243;49.296;11.348;2023-02-28T06:11:45;110.57;;;3.47;;
8411;SDS011;4243;49.296;11.348;2023-02-28T06:14:14;109.63;;;3.42;;
8411;SDS011;4243;49.296;11.348;2023-02-28T06:16:45;109.85;;;3.45;;
8411;SDS011;4243;49.296;11.348;2023-02-28T06:19:13;109.82;;;3.50;;
8411;SDS011;4243;49.296;11.348;2023-02-28T06:21:41;109.53;;;3.47;;
8411;SDS011;4243;49.296;11.348;2023-02-28T06:24:09;110.32;;;3.45;;
8411;SDS011;4243;49.296;11.348;2023-02-28T06:26:37;110.18;;;3.45;;
8411;SDS011;4243;49.296;11.348;2023-02-28T06:29:04;109.93;;;3.45;;
8411;SDS011;4243;49.296;11.348;2023-02-28T06:31:32;111.20;;;3.35;;
8411;SDS011;4243;49.296;11.348;2023-02-28T06:33:59;110.90;;;3.38;;
8411;SDS011;4243;49.296;11.348;2023-02-28T06:36:27;110.65;;;3.38;;
8411;SDS011;4243;49.296;11.348;2023-02-28T06:38:54;110.43;;;3.33;;
8411;SDS011;4243;49.296;11.348;2023-02-28T06:41:23;110.38;;;3.28;;
8411;SDS011;4243;49.296;11.348;2023-02-28T06:43:52;110.75;;;3.35;;
8411;SDS011;4243;49.296;11.348;2023-02-28T06:46:20;110.85;;;3.30;;
8411;SDS011;4243;49.296;11.348;2023-02-28T06:48:47;110.95;;;3.38;;
8411;SDS011;4243;49.296;11.348;2023-02-28T06:51:17;110.07;;;3.33;;
8411;SDS011;4243;49.296;11.348;2023-02-28T06:53:48;109.88;;;3.28;;
8411;SDS011;4243;49.296;11.348;2023-02-28T06:56:16;110.68;;;3.25;;
8411;SDS011;4243;49.296;11.348;2023-02-28T06:58:48;110.53;;;3.30;;
8411;SDS011;4243;49.296;11.348;2023-02-28T07:01:17;110.40;;;3.30;;
8411;SDS011;4243;49.296;11.348;2023-02-28T07:03:45;110.73;;;3.30;;
8411;SDS011;4243;49.296;11.348;2023-02-28T07:06:18;110.47;;;3.30;;
8411;SDS011;4243;49.296;11.348;2023-02-28T07:08:49;110.17;;;3.27;;
8411;SDS011;4243;49.296;11.348;2023-02-28T07:11:22;109.72;;;3.25;;
8411;SDS011;4243;49.296;11.348;2023-02-28T07:13:53;110.10;;;3.20;;
8411;SDS011;4243;49.296;11.348;2023-02-28T07:16:22;110.00;;;3.10;;
8411;SDS011;4243;49.296;11.348;2023-02-28T07:18:54;111.43;;;3.20;;
8411;SDS011;4243;49.296;11.348;2023-02-28T07:21:21;111.07;;;3.20;;
8411;SDS011;4243;49.296;11.348;2023-02-28T07:23:49;111.27;;;3.13;;
8411;SDS011;4243;49.296;11.348;2023-02-28T07:26:18;109.50;;;3.20;;
8411;SDS011;4243;49.296;11.348;2023-02-28T07:28:46;109.27;;;3.20;;
8411;SDS011;4243;49.296;11.348;2023-02-28T07:31:15;110.37;;;3.23;;
8411;SDS011;4243;49.296;11.348;2023-02-28T07:33:44;109.07;;;3.17;;
8411;SDS011;4243;49.296;11.348;2023-02-28T07:36:12;111.20;;;3.23;;
8411;SDS011;4243;49.296;11.348;2023-02-28T07:38:45;110.37;;;3.13;;
8411;SDS011;4243;49.296;11.348;2023-02-28T07:41:16;110.47;;;3.20;;
8411;SDS011;4243;49.296;11.348;2023-02-28T07:43:45;110.97;;;3.17;;
8411;SDS011;4243;49.296;11.348;2023-02-28T07:46:13;110.77;;;3.17;;
8411;SDS011;4243;49.296;11.348;2023-02-28T07:48:43;108.97;;;3.10;;
8411;SDS011;4243;49.296;11.348;2023-02-28T07:51:10;111.20;;;3.13;;
8411;SDS011;4243;49.296;11.348;2023-02-28T07:53:38;110.23;;;3.10;;
8411;SDS011;4243;49.296;11.348;2023-02-28T07:56:05;110.93;;;3.13;;
8411;SDS011;4243;49.296;11.348;2023-02-28T07:58:33;111.50;;;3.17;;
8411;SDS011;4243;49.296;11.348;2023-02-28T08:01:04;111.37;;;3.17;;
8411;SDS011;4243;49.296;11.348;2023-02-28T08:03:36;108.97;;;3.13;;
8411;SDS011;4243;49.296;11.348;2023-02-28T08:06:05;111.37;;;3.17;;
8411;SDS011;4243;49.296;11.348;2023-02-28T08:08:42;111.37;;;3.20;;
8411;SDS011;4243;49.296;11.348;2023-02-28T08:11:11;111.23;;;3.13;;
8411;SDS011;4243;49.296;11.348;2023-02-28T08:13:39;110.60;;;3.10;;
8411;SDS011;4243;49.296;11.348;2023-02-28T08:16:06;111.30;;;3.13;;
8411;SDS011;4243;49.296;11.348;2023-02-28T08:18:33;111.47;;;3.10;;
8411;SDS011;4243;49.296;11.348;2023-02-28T08:21:05;109.20;;;3.07;;
8411;SDS011;4243;49.296;11.348;2023-02-28T08:23:35;111.97;;;3.17;;
8411;SDS011;4243;49.296;11.348;2023-02-28T08:26:02;110.40;;;3.10;;
8411;SDS011;4243;49.296;11.348;2023-02-28T08:28:30;111.10;;;3.17;;
8411;SDS011;4243;49.296;11.348;2023-02-28T08:30:58;109.77;;;3.20;;
8411;SDS011;4243;49.296;11.348;2023-02-28T08:33:26;111.57;;;3.20;;
8411;SDS011;4243;49.296;11.348;2023-02-28T08:35:54;110.47;;;3.17;;
8411;SDS011;4243;49.296;11.348;2023-02-28T08:38:23;111.33;;;3.20;;
8411;SDS011;4243;49.296;11.348;2023-02-28T08:40:56;112.27;;;3.20;;
8411;SDS011;4243;49.296;11.348;2023-02-28T08:43:33;111.07;;;3.20;;
8411;SDS011;4243;49.296;11.348;2023-02-28T08:46:02;112.03;;;3.10;;
8411;SDS011;4243;49.296;11.348;2023-02-28T08:48:30;109.17;;;3.10;;
8411;SDS011;4243;49.296;11.348;2023-02-28T08:51:01;111.07;;;3.10;;
8411;SDS011;4243;49.296;11.348;2023-02-28T08:53:34;112.27;;;3.00;;
8411;SDS011;4243;49.296;11.348;2023-02-28T08:56:05;111.80;;;3.03;;
8411;SDS011;4243;49.296;11.348;2023-02-28T08:58:42;112.00;;;3.00;;
8411;SDS011;4243;49.296;11.348;2023-02-28T09:03:37;112.87;;;3.00;;
8411;SDS011;4243;49.296;11.348;2023-02-28T09:06:05;112.50;;;3.00;;
8411;SDS011;4243;49.296;11.348;2023-02-28T09:08:32;112.60;;;3.00;;
8411;SDS011;4243;49.296;11.348;2023-02-28T09:10:59;112.70;;;3.00;;
8411;SDS011;4243;49.296;11.348;2023-02-28T09:13:29;111.77;;;3.00;;
8411;SDS011;4243;49.296;11.348;2023-02-28T09:15:57;113.47;;;3.00;;
8411;SDS011;4243;49.296;11.348;2023-02-28T09:18:26;112.47;;;2.93;;
8411;SDS011;4243;49.296;11.348;2023-02-28T09:20:55;114.20;;;2.90;;
8411;SDS011;4243;49.296;11.348;2023-02-28T09:23:24;115.40;;;2.80;;
8411;SDS011;4243;49.296;11.348;2023-02-28T09:25:52;115.30;;;2.77;;
8411;SDS011;4243;49.296;11.348;2023-02-28T09:28:21;114.47;;;2.70;;
8411;SDS011;4243;49.296;11.348;2023-02-28T09:30:50;115.60;;;2.77;;
8411;SDS011;4243;49.296;11.348;2023-02-28T09:33:20;116.10;;;2.67;;
8411;SDS011;4243;49.296;11.348;2023-02-28T09:35:48;115.90;;;2.63;;
8411;SDS011;4243;49.296;11.348;2023-02-28T09:38:16;115.90;;;2.60;;
8411;SDS011;4243;49.296;11.348;2023-02-28T09:40:51;114.60;;;2.60;;
8411;SDS011;4243;49.296;11.348;2023-02-28T09:43:25;115.00;;;2.63;;
8411;SDS011;4243;49.296;11.348;2023-02-28T09:46:26;116.50;;;2.60;;
8411;SDS011;4243;49.296;11.348;2023-02-28T09:49:16;116.60;;;2.50;;
8411;SDS011;4243;49.296;11.348;2023-02-28T09:51:51;115.93;;;2.50;;
8411;SDS011;4243;49.296;11.348;2023-02-28T09:54:35;116.47;;;2.53;;
8411;SDS011;4243;49.296;11.348;2023-02-28T09:57:05;116.27;;;2.67;;
8411;SDS011;4243;49.296;11.348;2023-02-28T10:05:57;116.60;;;2.60;;
8411;SDS011;4243;49.296;11.348;2023-02-28T10:08:38;115.27;;;2.63;;
8411;SDS011;4243;49.296;11.348;2023-02-28T10:11:22;116.60;;;2.70;;
8411;SDS011;4243;49.296;11.348;2023-02-28T10:13:53;116.60;;;2.80;;
8411;SDS011;4243;49.296;11.348;2023-02-28T10:16:49;116.40;;;2.70;;
8411;SDS011;4243;49.296;11.348;2023-02-28T10:25:00;116.77;;;2.70;;
8411;SDS011;4243;49.296;11.348;2023-02-28T10:27:45;116.60;;;2.80;;
8411;SDS011;4243;49.296;11.348;2023-02-28T10:30:12;116.50;;;2.57;;
8411;SDS011;4243;49.296;11.348;2023-02-28T10:32:49;115.83;;;2.70;;
8411;SDS011;4243;49.296;11.348;2023-02-28T10:35:21;116.30;;;2.67;;
8411;SDS011;4243;49.296;11.348;2023-02-28T10:37:56;116.77;;;2.77;;
8411;SDS011;4243;49.296;11.348;2023-02-28T10:40:29;116.50;;;2.73;;
8411;SDS011;4243;49.296;11.348;2023-02-28T10:43:05;116.47;;;2.60;;
8411;SDS011;4243;49.296;11.348;2023-02-28T10:48:30;115.50;;;2.73;;
8411;SDS011;4243;49.296;11.348;2023-02-28T10:51:03;115.97;;;2.63;;
8411;SDS011;4243;49.296;11.348;2023-02-28T10:53:51;114.07;;;2.70;;
8411;SDS011;4243;49.296;11.348;2023-02-28T10:56:28;115.43;;;2.77;;
8411;SDS011;4243;49.296;11.348;2023-02-28T11:01:36;113.87;;;2.70;;
8411;SDS011;4243;49.296;11.348;2023-02-28T11:04:18;115.30;;;2.70;;
8411;SDS011;4243;49.296;11.348;2023-02-28T11:07:36;115.30;;;2.67;;
8411;SDS011;4243;49.296;11.348;2023-02-28T11:09:53;115.77;;;2.70;;
8411;SDS011;4243;49.296;11.348;2023-02-28T11:12:35;114.17;;;2.77;;
8411;SDS011;4243;49.296;11.348;2023-02-28T11:17:58;114.97;;;2.77;;
8411;SDS011;4243;49.296;11.348;2023-02-28T11:20:47;115.47;;;2.70;;
8411;SDS011;4243;49.296;11.348;2023-02-28T11:23:18;114.77;;;2.73;;
8411;SDS011;4243;49.296;11.348;2023-02-28T11:25:47;115.00;;;2.70;;
8411;SDS011;4243;49.296;11.348;2023-02-28T11:28:30;115.00;;;2.60;;
8411;SDS011;4243;49.296;11.348;2023-02-28T11:36:16;115.00;;;2.60;;
8411;SDS011;4243;49.296;11.348;2023-02-28T11:39:00;115.40;;;2.43;;
8411;SDS011;4243;49.296;11.348;2023-02-28T11:48:09;115.93;;;2.53;;
8411;SDS011;4243;49.296;11.348;2023-02-28T11:51:27;116.27;;;2.60;;
8411;SDS011;4243;49.296;11.348;2023-02-28T11:54:16;114.90;;;2.50;;
8411;SDS011;4243;49.296;11.348;2023-02-28T11:57:18;116.20;;;2.53;;
8411;SDS011;4243;49.296;11.348;2023-02-28T12:00:03;115.47;;;2.43;;
8411;SDS011;4243;49.296;11.348;2023-02-28T12:09:20;116.43;;;2.43;;
8411;SDS011;4243;49.296;11.348;2023-02-28T12:17:45;113.60;;;2.47;;
8411;SDS011;4243;49.296;11.348;2023-02-28T12:20:53;115.40;;;2.50;;
8411;SDS011;4243;49.296;11.348;2023-02-28T12:27:07;116.20;;;2.30;;
8411;SDS011;4243;49.296;11.348;2023-02-28T12:29:47;116.00;;;2.40;;
8411;SDS011;4243;49.296;11.348;2023-02-28T12:32:49;116.30;;;2.37;;
8411;SDS011;4243;49.296;11.348;2023-02-28T12:35:41;114.87;;;2.30;;
8411;SDS011;4243;49.296;11.348;2023-02-28T12:38:34;116.47;;;2.40;;
8411;SDS011;4243;49.296;11.348;2023-02-28T12:41:13;116.00;;;2.40;;
8411;SDS011;4243;49.296;11.348;2023-02-28T12:44:02;116.77;;;2.50;;
8411;SDS011;4243;49.296;11.348;2023-02-28T12:47:00;115.67;;;2.40;;
8411;SDS011;4243;49.296;11.348;2023-02-28T12:49:38;116.50;;;2.47;;
8411;SDS011;4243;49.296;11.348;2023-02-28T12:52:21;116.00;;;2.40;;
8411;SDS011;4243;49.296;11.348;2023-02-28T12:57:48;116.77;;;2.33;;
8411;SDS011;4243;49.296;11.348;2023-02-28T13:07:31;116.00;;;2.33;;
8411;SDS011;4243;49.296;11.348;2023-02-28T13:10:53;115.87;;;2.37;;
8411;SDS011;4243;49.296;11.348;2023-02-28T13:13:25;116.27;;;2.33;;
8411;SDS011;4243;49.296;11.348;2023-02-28T13:15:56;116.97;;;2.40;;
8411;SDS011;4243;49.296;11.348;2023-02-28T13:20:59;116.87;;;2.40;;
8411;SDS011;4243;49.296;11.348;2023-02-28T13:37:41;115.77;;;2.40;;
8411;SDS011;4243;49.296;11.348;2023-02-28T13:42:57;115.97;;;2.40;;
8411;SDS011;4243;49.296;11.348;2023-02-28T13:45:26;116.57;;;2.40;;
8411;SDS011;4243;49.296;11.348;2023-02-28T13:48:03;115.47;;;2.50;;
8411;SDS011;4243;49.296;11.348;2023-02-28T13:50:45;116.23;;;2.43;;
8411;SDS011;4243;49.296;11.348;2023-02-28T14:02:13;116.47;;;2.50;;
8411;SDS011;4243;49.296;11.348;2023-02-28T14:05:16;115.70;;;2.40;;
8411;SDS011;4243;49.296;11.348;2023-02-28T14:08:14;115.60;;;2.30;;
8411;SDS011;4243;49.296;11.348;2023-02-28T14:10:47;114.80;;;2.43;;
8411;SDS011;4243;49.296;11.348;2023-02-28T14:16:13;116.10;;;2.40;;
8411;SDS011;4243;49.296;11.348;2023-02-28T14:19:05;116.07;;;2.40;;
8411;SDS011;4243;49.296;11.348;2023-02-28T14:27:58;116.27;;;2.40;;
8411;SDS011;4243;49.296;11.348;2023-02-28T14:30:59;115.50;;;2.30;;
8411;SDS011;4243;49.296;11.348;2023-02-28T14:36:43;115.10;;;2.33;;
8411;SDS011;4243;49.296;11.348;2023-02-28T14:39:24;115.77;;;2.37;;
8411;SDS011;4243;49.296;11.348;2023-02-28T14:41:57;116.07;;;2.37;;
8411;SDS011;4243;49.296;11.348;2023-02-28T14:44:31;114.83;;;2.40;;
8411;SDS011;4243;49.296;11.348;2023-02-28T14:46:59;116.50;;;2.40;;
8411;SDS011;4243;49.296;11.348;2023-02-28T14:49:36;115.83;;;2.37;;
8411;SDS011;4243;49.296;11.348;2023-02-28T14:52:13;115.83;;;2.40;;
8411;SDS011;4243;49.296;11.348;2023-02-28T14:54:55;116.23;;;2.40;;
8411;SDS011;4243;49.296;11.348;2023-02-28T14:57:54;115.50;;;2.40;;
8411;SDS011;4243;49.296;11.348;2023-02-28T15:00:33;116.13;;;2.40;;
8411;SDS011;4243;49.296;11.348;2023-02-28T15:06:02;115.23;;;2.33;;
8411;SDS011;4243;49.296;11.348;2023-02-28T15:08:42;115.87;;;2.43;;
8411;SDS011;4243;49.296;11.348;2023-02-28T15:13:51;115.57;;;2.40;;
8411;SDS011;4243;49.296;11.348;2023-02-28T15:16:36;114.60;;;2.33;;
8411;SDS011;4243;49.296;11.348;2023-02-28T15:19:13;115.67;;;2.40;;
8411;SDS011;4243;49.296;11.348;2023-02-28T15:27:24;115.40;;;2.40;;
8411;SDS011;4243;49.296;11.348;2023-02-28T15:30:08;116.23;;;2.40;;
8411;SDS011;4243;49.296;11.348;2023-02-28T15:33:01;115.77;;;2.40;;
8411;SDS011;4243;49.296;11.348;2023-02-28T15:35:38;115.77;;;2.50;;
8411;SDS011;4243;49.296;11.348;2023-02-28T15:38:22;115.23;;;2.40;;
8411;SDS011;4243;49.296;11.348;2023-02-28T15:40:55;115.40;;;2.40;;
8411;SDS011;4243;49.296;11.348;2023-02-28T15:43:28;115.33;;;2.57;;
8411;SDS011;4243;49.296;11.348;2023-02-28T15:46:07;115.57;;;2.50;;
8411;SDS011;4243;49.296;11.348;2023-02-28T15:48:43;116.10;;;2.70;;
8411;SDS011;4243;49.296;11.348;2023-02-28T15:51:25;115.07;;;2.67;;
8411;SDS011;4243;49.296;11.348;2023-02-28T15:54:07;115.60;;;2.83;;
8411;SDS011;4243;49.296;11.348;2023-02-28T15:56:51;116.43;;;2.77;;
8411;SDS011;4243;49.296;11.348;2023-02-28T15:59:24;115.37;;;2.80;;
8411;SDS011;4243;49.296;11.348;2023-02-28T16:02:02;116.20;;;2.90;;
8411;SDS011;4243;49.296;11.348;2023-02-28T16:04:36;115.80;;;2.80;;
8411;SDS011;4243;49.296;11.348;2023-02-28T16:07:21;115.60;;;2.97;;
8411;SDS011;4243;49.296;11.348;2023-02-28T16:09:48;116.00;;;3.00;;
8411;SDS011;4243;49.296;11.348;2023-02-28T16:12:15;115.70;;;3.00;;
8411;SDS011;4243;49.296;11.348;2023-02-28T16:14:42;115.43;;;2.90;;
8411;SDS011;4243;49.296;11.348;2023-02-28T16:17:31;115.23;;;2.97;;
8411;SDS011;4243;49.296;11.348;2023-02-28T16:22:55;115.10;;;3.07;;
8411;SDS011;4243;49.296;11.348;2023-02-28T16:25:23;115.50;;;3.00;;
8411;SDS011;4243;49.296;11.348;2023-02-28T16:28:08;115.47;;;3.07;;
8411;SDS011;4243;49.296;11.348;2023-02-28T16:30:46;115.20;;;3.10;;
8411;SDS011;4243;49.296;11.348;2023-02-28T16:33:13;115.17;;;3.17;;
8411;SDS011;4243;49.296;11.348;2023-02-28T16:35:41;114.47;;;3.00;;
8411;SDS011;4243;49.296;11.348;2023-02-28T16:38:08;115.67;;;3.17;;
8411;SDS011;4243;49.296;11.348;2023-02-28T16:40:36;114.90;;;3.13;;
8411;SDS011;4243;49.296;11.348;2023-02-28T16:43:04;115.60;;;3.10;;
8411;SDS011;4243;49.296;11.348;2023-02-28T16:45:42;114.27;;;3.07;;
8411;SDS011;4243;49.296;11.348;2023-02-28T16:48:13;114.93;;;3.10;;
8411;SDS011;4243;49.296;11.348;2023-02-28T16:50:42;114.17;;;3.13;;
8411;SDS011;4243;49.296;11.348;2023-02-28T16:53:10;114.90;;;3.10;;
8411;SDS011;4243;49.296;11.348;2023-02-28T16:55:37;114.07;;;3.10;;
8411;SDS011;4243;49.296;11.348;2023-02-28T16:58:04;114.07;;;3.07;;
8411;SDS011;4243;49.296;11.348;2023-02-28T17:00:32;114.20;;;3.07;;
8411;SDS011;4243;49.296;11.348;2023-02-28T17:02:59;114.07;;;3.00;;
8411;SDS011;4243;49.296;11.348;2023-02-28T17:05:33;114.50;;;3.10;;
8411;SDS011;4243;49.296;11.348;2023-02-28T17:08:05;113.77;;;3.07;;
8411;SDS011;4243;49.296;11.348;2023-02-28T17:10:32;113.13;;;3.07;;
8411;SDS011;4243;49.296;11.348;2023-02-28T17:13:00;114.70;;;3.10;;
8411;SDS011;4243;49.296;11.348;2023-02-28T17:15:39;114.87;;;3.13;;
8411;SDS011;4243;49.296;11.348;2023-02-28T17:18:08;115.27;;;3.10;;
8411;SDS011;4243;49.296;11.348;2023-02-28T17:20:42;114.40;;;3.13;;
8411;SDS011;4243;49.296;11.348;2023-02-28T17:23:09;114.00;;;3.10;;
8411;SDS011;4243;49.296;11.348;2023-02-28T17:25:36;112.80;;;3.10;;
8411;SDS011;4243;49.296;11.348;2023-02-28T17:28:03;114.60;;;3.13;;
8411;SDS011;4243;49.296;11.348;2023-02-28T17:30:31;113.97;;;3.17;;
8411;SDS011;4243;49.296;11.348;2023-02-28T17:33:01;114.27;;;3.17;;
8411;SDS011;4243;49.296;11.348;2023-02-28T17:35:28;114.73;;;3.17;;
8411;SDS011;4243;49.296;11.348;2023-02-28T17:37:55;114.80;;;3.10;;